sensor_id;sensor_type;location;lat;lon;timestamp;temperature;humidity
17697;DHT22;8967;47.984;7.842;2023-10-19T00:00:55;12.80;99.90
17697;DHT22;8967;47.984;7.842;2023-10-19T00:03:23;12.80;99.90
17697;DHT22;8967;47.984;7.842;2023-10-19T00:05:51;12.90;99.90
17697;DHT22;8967;47.984;7.842;2023-10-19T00:08:18;12.90;99.90
17697;DHT22;8967;47.984;7.842;2023-10-19T00:10:51;12.90;99.90
17697;DHT22;8967;47.984;7.842;2023-10-19T00:13:27;13.00;99.90
17697;DHT22;8967;47.984;7.842;2023-10-19T00:15:56;13.00;99.90
17697;DHT22;8967;47.984;7.842;2023-10-19T00:18:28;13.00;99.90
17697;DHT22;8967;47.984;7.842;2023-10-19T00:20:59;13.00;99.90
17697;DHT22;8967;47.984;7.842;2023-10-19T00:23:36;13.00;99.90
17697;DHT22;8967;47.984;7.842;2023-10-19T00:26:05;13.00;99.90
17697;DHT22;8967;47.984;7.842;2023-10-19T00:28:43;13.00;99.90
17697;DHT22;8967;47.984;7.842;2023-10-19T00:31:17;13.00;99.90
17697;DHT22;8967;47.984;7.842;2023-10-19T00:33:48;13.00;99.90
17697;DHT22;8967;47.984;7.842;2023-10-19T00:36:18;13.00;99.90
17697;DHT22;8967;47.984;7.842;2023-10-19T00:38:47;13.00;99.90
17697;DHT22;8967;47.984;7.842;2023-10-19T00:41:22;12.90;99.90
17697;DHT22;8967;47.984;7.842;2023-10-19T00:43:55;13.00;99.90
17697;DHT22;8967;47.984;7.842;2023-10-19T00:46:30;13.00;99.90
17697;DHT22;8967;47.984;7.842;2023-10-19T00:49:04;12.90;99.90
17697;DHT22;8967;47.984;7.842;2023-10-19T00:51:38;12.90;99.90
17697;DHT22;8967;47.984;7.842;2023-10-19T00:54:13;12.90;99.90
17697;DHT22;8967;47.984;7.842;2023-10-19T00:56:42;12.90;99.90
17697;DHT22;8967;47.984;7.842;2023-10-19T00:59:18;12.90;99.90
17697;DHT22;8967;47.984;7.842;2023-10-19T01:01:52;12.90;99.90
17697;DHT22;8967;47.984;7.842;2023-10-19T01:04:25;12.90;99.90
17697;DHT22;8967;47.984;7.842;2023-10-19T01:06:59;12.90;99.90
17697;DHT22;8967;47.984;7.842;2023-10-19T01:09:35;12.90;99.90
17697;DHT22;8967;47.984;7.842;2023-10-19T01:12:02;12.90;99.90
17697;DHT22;8967;47.984;7.842;2023-10-19T01:15:04;12.90;99.90
17697;DHT22;8967;47.984;7.842;2023-10-19T01:17:34;12.90;99.90
17697;DHT22;8967;47.984;7.842;2023-10-19T01:20:07;12.90;99.90
17697;DHT22;8967;47.984;7.842;2023-10-19T01:22:48;12.90;99.90
17697;DHT22;8967;47.984;7.842;2023-10-19T01:25:16;12.90;99.90
17697;DHT22;8967;47.984;7.842;2023-10-19T01:27:46;12.90;99.90
17697;DHT22;8967;47.984;7.842;2023-10-19T01:30:15;12.90;99.90
17697;DHT22;8967;47.984;7.842;2023-10-19T01:32:43;12.90;99.90
17697;DHT22;8967;47.984;7.842;2023-10-19T01:35:11;12.90;99.90
17697;DHT22;8967;47.984;7.842;2023-10-19T01:37:41;12.90;99.90
17697;DHT22;8967;47.984;7.842;2023-10-19T01:40:09;12.90;99.90
17697;DHT22;8967;47.984;7.842;2023-10-19T01:42:41;12.90;99.90
17697;DHT22;8967;47.984;7.842;2023-10-19T01:45:08;12.90;99.90
17697;DHT22;8967;47.984;7.842;2023-10-19T01:47:37;12.90;99.90
17697;DHT22;8967;47.984;7.842;2023-10-19T01:50:04;12.90;99.90
17697;DHT22;8967;47.984;7.842;2023-10-19T01:52:31;12.90;99.90
17697;DHT22;8967;47.984;7.842;2023-10-19T01:54:57;12.90;99.90
17697;DHT22;8967;47.984;7.842;2023-10-19T01:57:34;12.90;99.90
17697;DHT22;8967;47.984;7.842;2023-10-19T02:00:00;12.90;99.90
17697;DHT22;8967;47.984;7.842;2023-10-19T02:02:38;12.90;99.90
17697;DHT22;8967;47.984;7.842;2023-10-19T02:05:04;12.90;99.90
17697;DHT22;8967;47.984;7.842;2023-10-19T02:07:35;13.00;99.90
17697;DHT22;8967;47.984;7.842;2023-10-19T02:10:04;13.00;99.90
17697;DHT22;8967;47.984;7.842;2023-10-19T02:12:37;13.00;99.90
17697;DHT22;8967;47.984;7.842;2023-10-19T02:15:08;13.00;99.90
17697;DHT22;8967;47.984;7.842;2023-10-19T02:17:35;13.00;99.90
17697;DHT22;8967;47.984;7.842;2023-10-19T02:20:06;13.00;99.90
17697;DHT22;8967;47.984;7.842;2023-10-19T02:22:50;13.00;99.90
17697;DHT22;8967;47.984;7.842;2023-10-19T02:25:20;13.00;99.90
17697;DHT22;8967;47.984;7.842;2023-10-19T02:27:49;13.00;99.90
17697;DHT22;8967;47.984;7.842;2023-10-19T02:30:15;13.00;99.90
17697;DHT22;8967;47.984;7.842;2023-10-19T02:32:44;13.00;99.90
17697;DHT22;8967;47.984;7.842;2023-10-19T02:35:13;13.00;99.90
17697;DHT22;8967;47.984;7.842;2023-10-19T02:37:41;13.00;99.90
17697;DHT22;8967;47.984;7.842;2023-10-19T02:40:11;13.00;99.90
17697;DHT22;8967;47.984;7.842;2023-10-19T02:42:45;13.00;99.90
17697;DHT22;8967;47.984;7.842;2023-10-19T02:45:16;13.00;99.90
17697;DHT22;8967;47.984;7.842;2023-10-19T02:47:43;13.00;99.90
17697;DHT22;8967;47.984;7.842;2023-10-19T02:50:13;13.00;99.90
17697;DHT22;8967;47.984;7.842;2023-10-19T02:52:42;13.00;99.90
17697;DHT22;8967;47.984;7.842;2023-10-19T02:55:09;13.00;99.90
17697;DHT22;8967;47.984;7.842;2023-10-19T02:57:36;13.00;99.90
17697;DHT22;8967;47.984;7.842;2023-10-19T03:00:05;13.00;99.90
17697;DHT22;8967;47.984;7.842;2023-10-19T03:02:38;13.00;99.90
17697;DHT22;8967;47.984;7.842;2023-10-19T03:05:06;13.00;99.90
17697;DHT22;8967;47.984;7.842;2023-10-19T03:07:40;12.90;99.90
17697;DHT22;8967;47.984;7.842;2023-10-19T03:10:09;12.90;99.90
17697;DHT22;8967;47.984;7.842;2023-10-19T03:12:49;12.90;99.90
17697;DHT22;8967;47.984;7.842;2023-10-19T03:15:19;12.90;99.90
17697;DHT22;8967;47.984;7.842;2023-10-19T03:17:48;12.90;99.90
17697;DHT22;8967;47.984;7.842;2023-10-19T03:20:15;12.90;99.90
17697;DHT22;8967;47.984;7.842;2023-10-19T03:22:43;13.00;99.90
17697;DHT22;8967;47.984;7.842;2023-10-19T03:25:13;13.00;99.90
17697;DHT22;8967;47.984;7.842;2023-10-19T03:27:57;12.90;99.90
17697;DHT22;8967;47.984;7.842;2023-10-19T03:30:27;12.90;99.90
17697;DHT22;8967;47.984;7.842;2023-10-19T03:32:56;13.00;99.90
17697;DHT22;8967;47.984;7.842;2023-10-19T03:35:27;13.00;99.90
17697;DHT22;8967;47.984;7.842;2023-10-19T03:37:56;13.00;99.90
17697;DHT22;8967;47.984;7.842;2023-10-19T03:40:26;13.00;99.90
17697;DHT22;8967;47.984;7.842;2023-10-19T03:42:58;13.00;99.90
17697;DHT22;8967;47.984;7.842;2023-10-19T03:45:31;13.00;99.90
17697;DHT22;8967;47.984;7.842;2023-10-19T03:48:06;13.00;99.90
17697;DHT22;8967;47.984;7.842;2023-10-19T03:50:37;13.00;99.90
17697;DHT22;8967;47.984;7.842;2023-10-19T03:53:07;13.00;99.90
17697;DHT22;8967;47.984;7.842;2023-10-19T03:55:38;13.00;99.90
17697;DHT22;8967;47.984;7.842;2023-10-19T03:58:05;13.00;99.90
17697;DHT22;8967;47.984;7.842;2023-10-19T04:00:34;13.00;99.90
17697;DHT22;8967;47.984;7.842;2023-10-19T04:03:02;13.00;99.90
17697;DHT22;8967;47.984;7.842;2023-10-19T04:05:30;13.00;99.90
17697;DHT22;8967;47.984;7.842;2023-10-19T04:08:01;13.00;99.90
17697;DHT22;8967;47.984;7.842;2023-10-19T04:10:38;13.00;99.90
17697;DHT22;8967;47.984;7.842;2023-10-19T04:13:11;13.00;99.90
17697;DHT22;8967;47.984;7.842;2023-10-19T04:15:38;13.00;99.90
17697;DHT22;8967;47.984;7.842;2023-10-19T04:18:07;13.00;99.90
17697;DHT22;8967;47.984;7.842;2023-10-19T04:20:39;13.00;99.90
17697;DHT22;8967;47.984;7.842;2023-10-19T04:23:24;13.00;99.90
17697;DHT22;8967;47.984;7.842;2023-10-19T04:25:57;13.10;99.90
17697;DHT22;8967;47.984;7.842;2023-10-19T04:28:26;13.10;99.90
17697;DHT22;8967;47.984;7.842;2023-10-19T04:31:04;13.10;99.90
17697;DHT22;8967;47.984;7.842;2023-10-19T04:33:32;13.10;99.90
17697;DHT22;8967;47.984;7.842;2023-10-19T04:36:01;13.10;99.90
17697;DHT22;8967;47.984;7.842;2023-10-19T04:38:31;13.10;99.90
17697;DHT22;8967;47.984;7.842;2023-10-19T04:41:04;13.10;99.90
17697;DHT22;8967;47.984;7.842;2023-10-19T04:43:37;13.20;99.90
17697;DHT22;8967;47.984;7.842;2023-10-19T04:46:09;13.20;99.90
17697;DHT22;8967;47.984;7.842;2023-10-19T04:48:38;13.20;99.90
17697;DHT22;8967;47.984;7.842;2023-10-19T04:51:08;13.20;99.90
17697;DHT22;8967;47.984;7.842;2023-10-19T04:53:37;13.20;99.90
17697;DHT22;8967;47.984;7.842;2023-10-19T04:56:05;13.30;99.90
17697;DHT22;8967;47.984;7.842;2023-10-19T04:58:34;13.30;99.90
17697;DHT22;8967;47.984;7.842;2023-10-19T05:01:02;13.30;99.90
17697;DHT22;8967;47.984;7.842;2023-10-19T05:03:29;13.30;99.90
17697;DHT22;8967;47.984;7.842;2023-10-19T05:05:57;13.40;99.90
17697;DHT22;8967;47.984;7.842;2023-10-19T05:08:25;13.40;99.90
17697;DHT22;8967;47.984;7.842;2023-10-19T05:10:54;13.40;99.90
17697;DHT22;8967;47.984;7.842;2023-10-19T05:13:25;13.40;99.90
17697;DHT22;8967;47.984;7.842;2023-10-19T05:15:55;13.40;99.90
17697;DHT22;8967;47.984;7.842;2023-10-19T05:18:22;13.40;99.90
17697;DHT22;8967;47.984;7.842;2023-10-19T05:20:49;13.50;99.90
17697;DHT22;8967;47.984;7.842;2023-10-19T05:23:22;13.50;99.90
17697;DHT22;8967;47.984;7.842;2023-10-19T05:25:52;13.50;99.90
17697;DHT22;8967;47.984;7.842;2023-10-19T05:28:44;13.50;99.90
17697;DHT22;8967;47.984;7.842;2023-10-19T05:31:18;13.50;99.90
17697;DHT22;8967;47.984;7.842;2023-10-19T05:33:45;13.50;99.90
17697;DHT22;8967;47.984;7.842;2023-10-19T05:36:14;13.50;99.90
17697;DHT22;8967;47.984;7.842;2023-10-19T05:38:43;13.50;99.90
17697;DHT22;8967;47.984;7.842;2023-10-19T05:41:11;13.60;99.90
17697;DHT22;8967;47.984;7.842;2023-10-19T05:43:38;13.60;99.90
17697;DHT22;8967;47.984;7.842;2023-10-19T05:46:05;13.60;99.90
17697;DHT22;8967;47.984;7.842;2023-10-19T05:48:32;13.60;99.90
17697;DHT22;8967;47.984;7.842;2023-10-19T05:50:59;13.60;99.90
17697;DHT22;8967;47.984;7.842;2023-10-19T05:53:29;13.60;99.90
17697;DHT22;8967;47.984;7.842;2023-10-19T05:55:56;13.60;99.90
17697;DHT22;8967;47.984;7.842;2023-10-19T05:58:24;13.60;99.90
17697;DHT22;8967;47.984;7.842;2023-10-19T06:00:51;13.60;99.90
17697;DHT22;8967;47.984;7.842;2023-10-19T06:03:18;13.60;99.90
17697;DHT22;8967;47.984;7.842;2023-10-19T06:05:50;13.60;99.90
17697;DHT22;8967;47.984;7.842;2023-10-19T06:08:24;13.60;99.90
17697;DHT22;8967;47.984;7.842;2023-10-19T06:10:51;13.60;99.90
17697;DHT22;8967;47.984;7.842;2023-10-19T06:13:21;13.60;99.90
17697;DHT22;8967;47.984;7.842;2023-10-19T06:15:50;13.60;99.90
17697;DHT22;8967;47.984;7.842;2023-10-19T06:18:17;13.60;99.90
17697;DHT22;8967;47.984;7.842;2023-10-19T06:20:47;13.60;99.90
17697;DHT22;8967;47.984;7.842;2023-10-19T06:23:17;13.60;99.90
17697;DHT22;8967;47.984;7.842;2023-10-19T06:25:44;13.60;99.90
17697;DHT22;8967;47.984;7.842;2023-10-19T06:28:12;13.60;99.90
17697;DHT22;8967;47.984;7.842;2023-10-19T06:30:49;13.60;99.90
17697;DHT22;8967;47.984;7.842;2023-10-19T06:33:16;13.60;99.90
17697;DHT22;8967;47.984;7.842;2023-10-19T06:35:43;13.60;99.90
17697;DHT22;8967;47.984;7.842;2023-10-19T06:38:10;13.60;99.90
17697;DHT22;8967;47.984;7.842;2023-10-19T06:40:37;13.60;99.90
17697;DHT22;8967;47.984;7.842;2023-10-19T06:43:05;13.70;99.90
17697;DHT22;8967;47.984;7.842;2023-10-19T06:45:32;13.70;99.90
17697;DHT22;8967;47.984;7.842;2023-10-19T06:48:01;13.70;99.90
17697;DHT22;8967;47.984;7.842;2023-10-19T06:51:32;13.70;99.90
17697;DHT22;8967;47.984;7.842;2023-10-19T06:53:59;13.80;99.90
17697;DHT22;8967;47.984;7.842;2023-10-19T06:56:56;13.80;99.90
17697;DHT22;8967;47.984;7.842;2023-10-19T06:59:26;13.80;99.90
17697;DHT22;8967;47.984;7.842;2023-10-19T07:01:55;13.80;99.90
17697;DHT22;8967;47.984;7.842;2023-10-19T07:04:23;13.80;99.90
17697;DHT22;8967;47.984;7.842;2023-10-19T07:06:50;13.80;99.90
17697;DHT22;8967;47.984;7.842;2023-10-19T07:09:22;13.90;99.90
17697;DHT22;8967;47.984;7.842;2023-10-19T07:11:52;13.90;99.90
17697;DHT22;8967;47.984;7.842;2023-10-19T07:14:45;13.90;99.90
17697;DHT22;8967;47.984;7.842;2023-10-19T07:17:14;14.00;99.90
17697;DHT22;8967;47.984;7.842;2023-10-19T07:19:43;13.90;99.90
17697;DHT22;8967;47.984;7.842;2023-10-19T07:22:16;14.00;99.90
17697;DHT22;8967;47.984;7.842;2023-10-19T07:24:48;14.00;99.90
17697;DHT22;8967;47.984;7.842;2023-10-19T07:27:15;14.00;99.90
17697;DHT22;8967;47.984;7.842;2023-10-19T07:29:44;14.00;99.90
17697;DHT22;8967;47.984;7.842;2023-10-19T07:32:11;14.00;99.90
17697;DHT22;8967;47.984;7.842;2023-10-19T07:34:43;14.00;99.90
17697;DHT22;8967;47.984;7.842;2023-10-19T07:37:13;14.00;99.90
17697;DHT22;8967;47.984;7.842;2023-10-19T07:39:45;14.00;99.90
17697;DHT22;8967;47.984;7.842;2023-10-19T07:42:15;14.10;99.90
17697;DHT22;8967;47.984;7.842;2023-10-19T07:44:43;14.10;99.90
17697;DHT22;8967;47.984;7.842;2023-10-19T07:47:12;14.10;99.90
17697;DHT22;8967;47.984;7.842;2023-10-19T07:49:44;14.10;99.90
17697;DHT22;8967;47.984;7.842;2023-10-19T07:52:13;14.20;99.90
17697;DHT22;8967;47.984;7.842;2023-10-19T07:54:40;14.20;99.90
17697;DHT22;8967;47.984;7.842;2023-10-19T07:57:10;14.30;99.90
17697;DHT22;8967;47.984;7.842;2023-10-19T07:59:38;14.30;99.90
17697;DHT22;8967;47.984;7.842;2023-10-19T08:02:06;14.40;99.90
17697;DHT22;8967;47.984;7.842;2023-10-19T08:04:34;14.40;99.90
17697;DHT22;8967;47.984;7.842;2023-10-19T08:07:05;14.40;99.90
17697;DHT22;8967;47.984;7.842;2023-10-19T08:09:35;14.40;99.90
17697;DHT22;8967;47.984;7.842;2023-10-19T08:12:02;14.50;99.90
17697;DHT22;8967;47.984;7.842;2023-10-19T08:14:31;14.50;99.90
17697;DHT22;8967;47.984;7.842;2023-10-19T08:16:58;14.50;99.90
17697;DHT22;8967;47.984;7.842;2023-10-19T08:19:28;14.50;99.90
17697;DHT22;8967;47.984;7.842;2023-10-19T08:21:57;14.50;99.90
17697;DHT22;8967;47.984;7.842;2023-10-19T08:24:25;14.50;99.90
17697;DHT22;8967;47.984;7.842;2023-10-19T08:26:55;14.50;99.90
17697;DHT22;8967;47.984;7.842;2023-10-19T08:29:25;14.60;99.90
17697;DHT22;8967;47.984;7.842;2023-10-19T08:31:52;14.50;99.90
17697;DHT22;8967;47.984;7.842;2023-10-19T08:34:19;14.50;99.90
17697;DHT22;8967;47.984;7.842;2023-10-19T08:36:46;14.50;99.90
17697;DHT22;8967;47.984;7.842;2023-10-19T08:39:15;14.60;99.90
17697;DHT22;8967;47.984;7.842;2023-10-19T08:41:45;14.60;99.90
17697;DHT22;8967;47.984;7.842;2023-10-19T08:44:16;14.60;99.90
17697;DHT22;8967;47.984;7.842;2023-10-19T08:46:46;14.60;99.90
17697;DHT22;8967;47.984;7.842;2023-10-19T08:49:15;14.60;99.90
17697;DHT22;8967;47.984;7.842;2023-10-19T08:51:44;14.70;99.90
17697;DHT22;8967;47.984;7.842;2023-10-19T08:54:12;14.70;99.90
17697;DHT22;8967;47.984;7.842;2023-10-19T08:56:40;14.70;99.90
17697;DHT22;8967;47.984;7.842;2023-10-19T08:59:11;14.80;99.90
17697;DHT22;8967;47.984;7.842;2023-10-19T09:01:38;14.80;99.90
17697;DHT22;8967;47.984;7.842;2023-10-19T09:04:05;14.80;99.90
17697;DHT22;8967;47.984;7.842;2023-10-19T09:06:34;14.80;99.90
17697;DHT22;8967;47.984;7.842;2023-10-19T09:09:08;14.90;99.90
17697;DHT22;8967;47.984;7.842;2023-10-19T09:11:40;14.90;99.90
17697;DHT22;8967;47.984;7.842;2023-10-19T09:14:07;15.00;99.90
17697;DHT22;8967;47.984;7.842;2023-10-19T09:16:36;15.00;99.90
17697;DHT22;8967;47.984;7.842;2023-10-19T09:19:03;15.00;99.90
17697;DHT22;8967;47.984;7.842;2023-10-19T09:21:31;15.00;99.90
17697;DHT22;8967;47.984;7.842;2023-10-19T09:23:58;15.10;99.90
17697;DHT22;8967;47.984;7.842;2023-10-19T09:26:28;15.10;99.90
17697;DHT22;8967;47.984;7.842;2023-10-19T09:28:55;15.20;99.90
17697;DHT22;8967;47.984;7.842;2023-10-19T09:31:22;15.20;99.90
17697;DHT22;8967;47.984;7.842;2023-10-19T09:33:51;15.20;99.90
17697;DHT22;8967;47.984;7.842;2023-10-19T09:36:21;15.20;99.90
17697;DHT22;8967;47.984;7.842;2023-10-19T09:38:53;15.20;99.90
17697;DHT22;8967;47.984;7.842;2023-10-19T09:41:23;15.20;99.90
17697;DHT22;8967;47.984;7.842;2023-10-19T09:43:58;15.30;99.90
17697;DHT22;8967;47.984;7.842;2023-10-19T09:46:31;15.30;99.90
17697;DHT22;8967;47.984;7.842;2023-10-19T09:49:04;15.30;99.90
17697;DHT22;8967;47.984;7.842;2023-10-19T09:51:33;15.30;99.90
17697;DHT22;8967;47.984;7.842;2023-10-19T09:54:03;15.40;99.90
17697;DHT22;8967;47.984;7.842;2023-10-19T09:56:36;15.40;99.90
17697;DHT22;8967;47.984;7.842;2023-10-19T09:59:06;15.40;99.90
17697;DHT22;8967;47.984;7.842;2023-10-19T10:02:06;15.50;99.90
17697;DHT22;8967;47.984;7.842;2023-10-19T10:04:35;15.50;99.90
17697;DHT22;8967;47.984;7.842;2023-10-19T10:07:05;15.60;99.90
17697;DHT22;8967;47.984;7.842;2023-10-19T10:09:35;15.60;99.90
17697;DHT22;8967;47.984;7.842;2023-10-19T10:12:21;15.60;99.90
17697;DHT22;8967;47.984;7.842;2023-10-19T10:14:57;15.60;99.90
17697;DHT22;8967;47.984;7.842;2023-10-19T10:17:25;15.70;99.90
17697;DHT22;8967;47.984;7.842;2023-10-19T10:19:56;15.60;99.90
17697;DHT22;8967;47.984;7.842;2023-10-19T10:22:26;15.70;99.90
17697;DHT22;8967;47.984;7.842;2023-10-19T10:24:54;15.80;99.90
17697;DHT22;8967;47.984;7.842;2023-10-19T10:27:22;15.80;99.90
17697;DHT22;8967;47.984;7.842;2023-10-19T10:29:56;15.80;99.90
17697;DHT22;8967;47.984;7.842;2023-10-19T10:32:43;15.90;99.90
17697;DHT22;8967;47.984;7.842;2023-10-19T10:38:13;16.00;99.90
17697;DHT22;8967;47.984;7.842;2023-10-19T10:40:45;16.10;99.90
17697;DHT22;8967;47.984;7.842;2023-10-19T10:43:13;16.20;99.90
17697;DHT22;8967;47.984;7.842;2023-10-19T10:45:44;16.30;99.90
17697;DHT22;8967;47.984;7.842;2023-10-19T10:48:12;16.30;99.90
17697;DHT22;8967;47.984;7.842;2023-10-19T10:50:39;16.40;99.90
17697;DHT22;8967;47.984;7.842;2023-10-19T10:53:07;16.40;99.90
17697;DHT22;8967;47.984;7.842;2023-10-19T10:55:35;16.40;99.90
17697;DHT22;8967;47.984;7.842;2023-10-19T10:58:03;16.50;99.90
17697;DHT22;8967;47.984;7.842;2023-10-19T11:00:30;16.50;99.90
17697;DHT22;8967;47.984;7.842;2023-10-19T11:03:06;16.50;99.90
17697;DHT22;8967;47.984;7.842;2023-10-19T11:05:35;16.50;99.90
17697;DHT22;8967;47.984;7.842;2023-10-19T11:08:09;16.50;99.90
17697;DHT22;8967;47.984;7.842;2023-10-19T11:10:44;16.50;99.90
17697;DHT22;8967;47.984;7.842;2023-10-19T11:13:15;16.50;99.90
17697;DHT22;8967;47.984;7.842;2023-10-19T11:15:48;16.50;99.90
17697;DHT22;8967;47.984;7.842;2023-10-19T11:18:28;16.50;99.90
17697;DHT22;8967;47.984;7.842;2023-10-19T11:20:56;16.50;99.90
17697;DHT22;8967;47.984;7.842;2023-10-19T11:23:36;16.50;99.90
17697;DHT22;8967;47.984;7.842;2023-10-19T11:26:04;16.60;99.90
17697;DHT22;8967;47.984;7.842;2023-10-19T11:28:32;16.60;99.90
17697;DHT22;8967;47.984;7.842;2023-10-19T11:31:13;16.70;99.90
17697;DHT22;8967;47.984;7.842;2023-10-19T11:33:41;16.70;99.90
17697;DHT22;8967;47.984;7.842;2023-10-19T11:36:09;16.70;99.90
17697;DHT22;8967;47.984;7.842;2023-10-19T11:38:40;16.70;99.90
17697;DHT22;8967;47.984;7.842;2023-10-19T11:41:08;16.80;99.90
17697;DHT22;8967;47.984;7.842;2023-10-19T11:43:36;16.80;99.90
17697;DHT22;8967;47.984;7.842;2023-10-19T11:46:03;16.80;99.90
17697;DHT22;8967;47.984;7.842;2023-10-19T11:48:32;16.80;99.90
17697;DHT22;8967;47.984;7.842;2023-10-19T12:02:37;16.80;99.90
17697;DHT22;8967;47.984;7.842;2023-10-19T12:05:23;16.80;99.90
17697;DHT22;8967;47.984;7.842;2023-10-19T12:11:10;16.80;99.90
17697;DHT22;8967;47.984;7.842;2023-10-19T12:17:12;16.80;99.90
17697;DHT22;8967;47.984;7.842;2023-10-19T12:31:22;16.90;99.90
17697;DHT22;8967;47.984;7.842;2023-10-19T12:41:17;16.80;99.90
17697;DHT22;8967;47.984;7.842;2023-10-19T12:43:45;16.80;99.90
17697;DHT22;8967;47.984;7.842;2023-10-19T12:46:14;16.80;99.90
17697;DHT22;8967;47.984;7.842;2023-10-19T12:48:43;16.80;99.90
17697;DHT22;8967;47.984;7.842;2023-10-19T12:54:41;16.80;99.90
17697;DHT22;8967;47.984;7.842;2023-10-19T12:57:11;16.70;99.90
17697;DHT22;8967;47.984;7.842;2023-10-19T13:03:07;16.70;99.90
17697;DHT22;8967;47.984;7.842;2023-10-19T13:05:38;16.60;99.90
17697;DHT22;8967;47.984;7.842;2023-10-19T13:08:06;16.70;99.90
17697;DHT22;8967;47.984;7.842;2023-10-19T13:24:16;16.60;99.90
17697;DHT22;8967;47.984;7.842;2023-10-19T13:26:44;16.60;99.90
17697;DHT22;8967;47.984;7.842;2023-10-19T13:29:17;16.60;99.90
17697;DHT22;8967;47.984;7.842;2023-10-19T13:31:46;16.60;99.90
17697;DHT22;8967;47.984;7.842;2023-10-19T13:34:16;16.60;99.90
17697;DHT22;8967;47.984;7.842;2023-10-19T13:36:45;16.60;99.90
17697;DHT22;8967;47.984;7.842;2023-10-19T13:39:12;16.60;99.90
17697;DHT22;8967;47.984;7.842;2023-10-19T13:41:44;16.60;99.90
17697;DHT22;8967;47.984;7.842;2023-10-19T13:44:11;16.60;99.90
17697;DHT22;8967;47.984;7.842;2023-10-19T13:46:38;16.60;99.90
17697;DHT22;8967;47.984;7.842;2023-10-19T13:49:05;16.60;99.90
17697;DHT22;8967;47.984;7.842;2023-10-19T13:51:35;16.70;99.90
17697;DHT22;8967;47.984;7.842;2023-10-19T13:54:05;16.70;99.90
17697;DHT22;8967;47.984;7.842;2023-10-19T13:56:32;16.70;99.90
17697;DHT22;8967;47.984;7.842;2023-10-19T13:59:00;16.70;99.90
17697;DHT22;8967;47.984;7.842;2023-10-19T14:01:27;16.70;99.90
17697;DHT22;8967;47.984;7.842;2023-10-19T14:03:59;16.70;99.90
17697;DHT22;8967;47.984;7.842;2023-10-19T14:06:27;16.70;99.90
17697;DHT22;8967;47.984;7.842;2023-10-19T14:08:54;16.70;99.90
17697;DHT22;8967;47.984;7.842;2023-10-19T14:11:23;16.70;99.90
17697;DHT22;8967;47.984;7.842;2023-10-19T14:13:53;16.70;99.90
17697;DHT22;8967;47.984;7.842;2023-10-19T14:16:22;16.70;99.90
17697;DHT22;8967;47.984;7.842;2023-10-19T14:18:51;16.70;99.90
17697;DHT22;8967;47.984;7.842;2023-10-19T14:21:18;16.70;99.90
17697;DHT22;8967;47.984;7.842;2023-10-19T14:23:46;16.70;99.90
17697;DHT22;8967;47.984;7.842;2023-10-19T14:26:13;16.70;99.90
17697;DHT22;8967;47.984;7.842;2023-10-19T14:28:41;16.70;99.90
17697;DHT22;8967;47.984;7.842;2023-10-19T14:31:08;16.70;99.90
17697;DHT22;8967;47.984;7.842;2023-10-19T14:33:38;16.70;99.90
17697;DHT22;8967;47.984;7.842;2023-10-19T14:36:06;16.70;99.90
17697;DHT22;8967;47.984;7.842;2023-10-19T14:38:36;16.70;99.90
17697;DHT22;8967;47.984;7.842;2023-10-19T14:41:05;16.70;99.90
17697;DHT22;8967;47.984;7.842;2023-10-19T14:43:32;16.70;99.90
17697;DHT22;8967;47.984;7.842;2023-10-19T14:45:59;16.70;99.90
17697;DHT22;8967;47.984;7.842;2023-10-19T14:48:27;16.70;99.90
17697;DHT22;8967;47.984;7.842;2023-10-19T14:50:57;16.70;99.90
17697;DHT22;8967;47.984;7.842;2023-10-19T14:53:24;16.70;99.90
17697;DHT22;8967;47.984;7.842;2023-10-19T14:55:52;16.70;99.90
17697;DHT22;8967;47.984;7.842;2023-10-19T14:58:19;16.70;99.90
17697;DHT22;8967;47.984;7.842;2023-10-19T15:00:46;16.70;99.90
17697;DHT22;8967;47.984;7.842;2023-10-19T15:03:22;16.60;99.90
17697;DHT22;8967;47.984;7.842;2023-10-19T15:05:51;16.60;99.90
17697;DHT22;8967;47.984;7.842;2023-10-19T15:08:20;16.60;99.90
17697;DHT22;8967;47.984;7.842;2023-10-19T15:10:49;16.60;99.90
17697;DHT22;8967;47.984;7.842;2023-10-19T15:13:17;16.60;99.90
17697;DHT22;8967;47.984;7.842;2023-10-19T15:15:44;16.50;99.90
17697;DHT22;8967;47.984;7.842;2023-10-19T15:18:13;16.50;99.90
17697;DHT22;8967;47.984;7.842;2023-10-19T15:20:40;16.50;99.90
17697;DHT22;8967;47.984;7.842;2023-10-19T15:23:07;16.50;99.90
17697;DHT22;8967;47.984;7.842;2023-10-19T15:25:37;16.50;99.90
17697;DHT22;8967;47.984;7.842;2023-10-19T15:28:10;16.50;99.90
17697;DHT22;8967;47.984;7.842;2023-10-19T15:30:37;16.50;99.90
17697;DHT22;8967;47.984;7.842;2023-10-19T15:33:05;16.50;99.90
17697;DHT22;8967;47.984;7.842;2023-10-19T15:35:32;16.40;99.90
17697;DHT22;8967;47.984;7.842;2023-10-19T15:38:02;16.40;99.90
17697;DHT22;8967;47.984;7.842;2023-10-19T15:40:30;16.40;99.90
17697;DHT22;8967;47.984;7.842;2023-10-19T15:43:01;16.40;99.90
17697;DHT22;8967;47.984;7.842;2023-10-19T15:45:29;16.40;99.90
17697;DHT22;8967;47.984;7.842;2023-10-19T15:48:00;16.40;99.90
17697;DHT22;8967;47.984;7.842;2023-10-19T15:50:30;16.30;99.90
17697;DHT22;8967;47.984;7.842;2023-10-19T15:52:57;16.40;99.90
17697;DHT22;8967;47.984;7.842;2023-10-19T15:55:25;16.40;99.90
17697;DHT22;8967;47.984;7.842;2023-10-19T15:57:52;16.30;99.90
17697;DHT22;8967;47.984;7.842;2023-10-19T16:00:25;16.30;99.90
17697;DHT22;8967;47.984;7.842;2023-10-19T16:02:56;16.30;99.90
17697;DHT22;8967;47.984;7.842;2023-10-19T16:05:26;16.30;99.90
17697;DHT22;8967;47.984;7.842;2023-10-19T16:07:53;16.30;99.90
17697;DHT22;8967;47.984;7.842;2023-10-19T16:10:22;16.30;99.90
17697;DHT22;8967;47.984;7.842;2023-10-19T16:12:52;16.30;99.90
17697;DHT22;8967;47.984;7.842;2023-10-19T16:15:19;16.30;99.90
17697;DHT22;8967;47.984;7.842;2023-10-19T16:17:50;16.20;99.90
17697;DHT22;8967;47.984;7.842;2023-10-19T16:20:17;16.20;99.90
17697;DHT22;8967;47.984;7.842;2023-10-19T16:22:49;16.20;99.90
17697;DHT22;8967;47.984;7.842;2023-10-19T16:25:20;16.20;99.90
17697;DHT22;8967;47.984;7.842;2023-10-19T16:27:47;16.20;99.90
17697;DHT22;8967;47.984;7.842;2023-10-19T16:30:14;16.20;99.90
17697;DHT22;8967;47.984;7.842;2023-10-19T16:32:42;16.20;99.90
17697;DHT22;8967;47.984;7.842;2023-10-19T16:35:14;16.20;99.90
17697;DHT22;8967;47.984;7.842;2023-10-19T16:37:41;16.20;99.90
17697;DHT22;8967;47.984;7.842;2023-10-19T16:40:09;16.20;99.90
17697;DHT22;8967;47.984;7.842;2023-10-19T16:42:39;16.20;99.90
17697;DHT22;8967;47.984;7.842;2023-10-19T16:45:07;16.20;99.90
17697;DHT22;8967;47.984;7.842;2023-10-19T16:47:39;16.20;99.90
17697;DHT22;8967;47.984;7.842;2023-10-19T16:50:11;16.20;99.90
17697;DHT22;8967;47.984;7.842;2023-10-19T16:52:41;16.10;99.90
17697;DHT22;8967;47.984;7.842;2023-10-19T16:55:12;16.10;99.90
17697;DHT22;8967;47.984;7.842;2023-10-19T16:57:40;16.10;99.90
17697;DHT22;8967;47.984;7.842;2023-10-19T17:00:08;16.10;99.90
17697;DHT22;8967;47.984;7.842;2023-10-19T17:02:39;16.10;99.90
17697;DHT22;8967;47.984;7.842;2023-10-19T17:05:09;16.10;99.90